sensor_id;sensor_type;location;lat;lon;timestamp;pressure;altitude;pressure_sealevel;temperature;humidity
20350;BME280;10332;50.208;18.988;2022-08-20T00:01:41;97644.22;;;24.14;93.99
20350;BME280;10332;50.208;18.988;2022-08-20T00:04:08;97652.44;;;24.12;93.96
20350;BME280;10332;50.208;18.988;2022-08-20T00:06:37;97656.94;;;24.05;94.75
20350;BME280;10332;50.208;18.988;2022-08-20T00:09:06;97671.91;;;23.99;95.49
20350;BME280;10332;50.208;18.988;2022-08-20T00:11:34;97685.84;;;23.95;95.21
20350;BME280;10332;50.208;18.988;2022-08-20T00:14:04;97692.16;;;23.87;95.80
20350;BME280;10332;50.208;18.988;2022-08-20T00:16:35;97702.19;;;23.85;96.04
20350;BME280;10332;50.208;18.988;2022-08-20T00:19:07;97686.41;;;23.84;95.90
20350;BME280;10332;50.208;18.988;2022-08-20T00:21:35;97698.91;;;23.83;96.30
20350;BME280;10332;50.208;18.988;2022-08-20T00:24:04;97707.75;;;23.84;96.63
20350;BME280;10332;50.208;18.988;2022-08-20T00:26:32;97698.09;;;23.83;96.79
20350;BME280;10332;50.208;18.988;2022-08-20T00:29:00;97703.81;;;23.79;97.51
20350;BME280;10332;50.208;18.988;2022-08-20T00:31:27;97702.97;;;23.79;97.21
20350;BME280;10332;50.208;18.988;2022-08-20T00:33:55;97702.78;;;23.74;97.78
20350;BME280;10332;50.208;18.988;2022-08-20T00:36:22;97700.72;;;23.76;98.05
20350;BME280;10332;50.208;18.988;2022-08-20T00:38:58;97696.00;;;23.78;97.85
20350;BME280;10332;50.208;18.988;2022-08-20T00:41:27;97679.59;;;23.81;97.67
20350;BME280;10332;50.208;18.988;2022-08-20T00:44:19;97680.84;;;23.78;97.79
20350;BME280;10332;50.208;18.988;2022-08-20T00:46:49;97673.28;;;23.82;97.58
20350;BME280;10332;50.208;18.988;2022-08-20T00:49:25;97672.63;;;23.80;97.96
20350;BME280;10332;50.208;18.988;2022-08-20T00:52:00;97668.13;;;23.81;97.86
20350;BME280;10332;50.208;18.988;2022-08-20T00:54:38;97674.47;;;23.79;97.91
20350;BME280;10332;50.208;18.988;2022-08-20T00:57:21;97668.72;;;23.76;97.60
20350;BME280;10332;50.208;18.988;2022-08-20T00:59:52;97665.66;;;23.72;98.21
20350;BME280;10332;50.208;18.988;2022-08-20T01:02:24;97646.13;;;23.72;98.22
20350;BME280;10332;50.208;18.988;2022-08-20T01:04:54;97641.22;;;23.69;98.17
20350;BME280;10332;50.208;18.988;2022-08-20T01:07:25;97632.16;;;23.63;98.58
20350;BME280;10332;50.208;18.988;2022-08-20T01:10:12;97628.41;;;23.51;99.84
20350;BME280;10332;50.208;18.988;2022-08-20T01:12:47;97633.31;;;23.54;99.94
20350;BME280;10332;50.208;18.988;2022-08-20T01:15:24;97633.72;;;23.51;99.93
20350;BME280;10332;50.208;18.988;2022-08-20T01:17:59;97649.50;;;23.46;99.75
20350;BME280;10332;50.208;18.988;2022-08-20T01:20:40;97657.66;;;23.38;99.96
20350;BME280;10332;50.208;18.988;2022-08-20T01:26:18;97654.78;;;23.39;99.52
20350;BME280;10332;50.208;18.988;2022-08-20T01:29:01;97649.06;;;23.42;99.27
20350;BME280;10332;50.208;18.988;2022-08-20T01:31:34;97656.44;;;23.40;99.20
20350;BME280;10332;50.208;18.988;2022-08-20T01:34:06;97669.31;;;23.37;99.81
20350;BME280;10332;50.208;18.988;2022-08-20T01:36:41;97669.13;;;23.38;99.52
20350;BME280;10332;50.208;18.988;2022-08-20T01:39:18;97665.66;;;23.38;98.87
20350;BME280;10332;50.208;18.988;2022-08-20T01:44:36;97660.47;;;23.36;99.52
20350;BME280;10332;50.208;18.988;2022-08-20T01:47:18;97663.75;;;23.32;99.61
20350;BME280;10332;50.208;18.988;2022-08-20T01:49:53;97656.78;;;23.31;99.62
20350;BME280;10332;50.208;18.988;2022-08-20T01:52:34;97655.56;;;23.33;99.41
20350;BME280;10332;50.208;18.988;2022-08-20T01:55:05;97647.97;;;23.30;100.00
20350;BME280;10332;50.208;18.988;2022-08-20T01:57:34;97640.59;;;23.32;100.00
20350;BME280;10332;50.208;18.988;2022-08-20T02:00:12;97653.09;;;23.32;100.00
20350;BME280;10332;50.208;18.988;2022-08-20T02:02:46;97651.00;;;23.27;100.00
20350;BME280;10332;50.208;18.988;2022-08-20T02:05:14;97655.72;;;23.25;100.00
20350;BME280;10332;50.208;18.988;2022-08-20T02:07:41;97657.13;;;23.21;100.00
20350;BME280;10332;50.208;18.988;2022-08-20T02:10:13;97657.50;;;23.18;100.00
20350;BME280;10332;50.208;18.988;2022-08-20T02:12:41;97642.34;;;23.18;100.00
20350;BME280;10332;50.208;18.988;2022-08-20T02:15:10;97649.75;;;23.23;100.00
20350;BME280;10332;50.208;18.988;2022-08-20T02:17:39;97648.06;;;23.15;100.00
20350;BME280;10332;50.208;18.988;2022-08-20T02:20:25;97655.03;;;23.10;100.00
20350;BME280;10332;50.208;18.988;2022-08-20T02:22:57;97637.41;;;23.15;100.00
20350;BME280;10332;50.208;18.988;2022-08-20T02:25:28;97628.44;;;23.23;100.00
20350;BME280;10332;50.208;18.988;2022-08-20T02:27:59;97634.41;;;23.25;100.00
20350;BME280;10332;50.208;18.988;2022-08-20T02:30:37;97639.09;;;23.23;100.00
20350;BME280;10332;50.208;18.988;2022-08-20T02:33:08;97630.09;;;23.24;100.00
20350;BME280;10332;50.208;18.988;2022-08-20T02:35:40;97628.44;;;23.23;100.00
20350;BME280;10332;50.208;18.988;2022-08-20T02:38:10;97629.69;;;23.20;100.00
20350;BME280;10332;50.208;18.988;2022-08-20T02:40:38;97643.81;;;23.21;100.00
20350;BME280;10332;50.208;18.988;2022-08-20T02:43:05;97651.19;;;23.19;100.00
20350;BME280;10332;50.208;18.988;2022-08-20T02:45:35;97652.56;;;23.15;100.00
20350;BME280;10332;50.208;18.988;2022-08-20T02:48:16;97650.72;;;23.15;100.00
20350;BME280;10332;50.208;18.988;2022-08-20T02:50:55;97644.63;;;23.21;100.00
20350;BME280;10332;50.208;18.988;2022-08-20T02:53:25;97635.47;;;23.31;100.00
20350;BME280;10332;50.208;18.988;2022-08-20T02:55:53;97632.03;;;23.37;100.00
20350;BME280;10332;50.208;18.988;2022-08-20T02:58:22;97626.91;;;23.42;100.00
20350;BME280;10332;50.208;18.988;2022-08-20T03:00:50;97616.66;;;23.39;100.00
20350;BME280;10332;50.208;18.988;2022-08-20T03:03:18;97627.53;;;23.37;100.00
20350;BME280;10332;50.208;18.988;2022-08-20T03:05:55;97619.53;;;23.37;100.00
20350;BME280;10332;50.208;18.988;2022-08-20T03:08:24;97611.34;;;23.39;100.00
20350;BME280;10332;50.208;18.988;2022-08-20T03:10:52;97605.19;;;23.38;100.00
20350;BME280;10332;50.208;18.988;2022-08-20T03:13:21;97614.00;;;23.39;100.00
20350;BME280;10332;50.208;18.988;2022-08-20T03:15:55;97615.84;;;23.38;99.70
20350;BME280;10332;50.208;18.988;2022-08-20T03:18:35;97620.53;;;23.36;99.46
20350;BME280;10332;50.208;18.988;2022-08-20T03:21:06;97617.84;;;23.36;99.78
20350;BME280;10332;50.208;18.988;2022-08-20T03:23:37;97630.56;;;23.34;99.81
20350;BME280;10332;50.208;18.988;2022-08-20T03:26:09;97628.91;;;23.33;99.74
20350;BME280;10332;50.208;18.988;2022-08-20T03:28:37;97627.28;;;23.32;99.42
20350;BME280;10332;50.208;18.988;2022-08-20T03:31:05;97622.38;;;23.36;99.49
20350;BME280;10332;50.208;18.988;2022-08-20T03:33:34;97616.25;;;23.42;98.94
20350;BME280;10332;50.208;18.988;2022-08-20T03:36:01;97615.69;;;23.46;98.90
20350;BME280;10332;50.208;18.988;2022-08-20T03:38:29;97606.25;;;23.50;98.96
20350;BME280;10332;50.208;18.988;2022-08-20T03:41:01;97607.31;;;23.56;98.61
20350;BME280;10332;50.208;18.988;2022-08-20T03:43:29;97617.78;;;23.58;98.63
20350;BME280;10332;50.208;18.988;2022-08-20T03:45:57;97621.09;;;23.60;98.36
20350;BME280;10332;50.208;18.988;2022-08-20T03:48:25;97616.56;;;23.60;98.45
20350;BME280;10332;50.208;18.988;2022-08-20T03:50:52;97599.34;;;23.63;98.48
20350;BME280;10332;50.208;18.988;2022-08-20T03:53:19;97602.25;;;23.68;98.49
20350;BME280;10332;50.208;18.988;2022-08-20T03:55:48;97600.00;;;23.71;98.38
20350;BME280;10332;50.208;18.988;2022-08-20T03:58:22;97588.75;;;23.76;98.33
20350;BME280;10332;50.208;18.988;2022-08-20T04:01:04;97578.69;;;23.78;98.17
20350;BME280;10332;50.208;18.988;2022-08-20T04:03:33;97568.03;;;23.78;97.73
20350;BME280;10332;50.208;18.988;2022-08-20T04:06:01;97564.13;;;23.74;97.51
20350;BME280;10332;50.208;18.988;2022-08-20T04:08:29;97547.13;;;23.75;97.19
20350;BME280;10332;50.208;18.988;2022-08-20T04:10:58;97551.00;;;23.79;97.13
20350;BME280;10332;50.208;18.988;2022-08-20T04:13:28;97563.50;;;23.72;96.94
20350;BME280;10332;50.208;18.988;2022-08-20T04:15:57;97570.06;;;23.69;96.89
20350;BME280;10332;50.208;18.988;2022-08-20T04:18:26;97567.59;;;23.68;97.17
20350;BME280;10332;50.208;18.988;2022-08-20T04:20:54;97574.78;;;23.67;96.61
20350;BME280;10332;50.208;18.988;2022-08-20T04:23:22;97591.38;;;23.69;96.60
20350;BME280;10332;50.208;18.988;2022-08-20T04:25:49;97587.09;;;23.75;95.72
20350;BME280;10332;50.208;18.988;2022-08-20T04:28:21;97575.41;;;23.76;95.41
20350;BME280;10332;50.208;18.988;2022-08-20T04:30:58;97563.53;;;23.78;94.64
20350;BME280;10332;50.208;18.988;2022-08-20T04:33:28;97557.78;;;23.75;94.74
20350;BME280;10332;50.208;18.988;2022-08-20T04:36:03;97534.00;;;23.80;94.75
20350;BME280;10332;50.208;18.988;2022-08-20T04:38:33;97555.53;;;23.85;94.97
20350;BME280;10332;50.208;18.988;2022-08-20T04:41:19;97554.91;;;23.90;94.63
20350;BME280;10332;50.208;18.988;2022-08-20T04:43:52;97570.31;;;23.88;95.19
20350;BME280;10332;50.208;18.988;2022-08-20T04:46:23;97579.75;;;23.90;95.16
20350;BME280;10332;50.208;18.988;2022-08-20T04:48:53;97582.63;;;23.95;95.06
20350;BME280;10332;50.208;18.988;2022-08-20T04:51:21;97597.22;;;23.99;95.74
20350;BME280;10332;50.208;18.988;2022-08-20T04:53:52;97597.44;;;24.04;95.42
20350;BME280;10332;50.208;18.988;2022-08-20T04:56:24;97601.56;;;24.14;95.25
20350;BME280;10332;50.208;18.988;2022-08-20T04:58:55;97601.38;;;24.28;94.78
20350;BME280;10332;50.208;18.988;2022-08-20T05:01:23;97610.44;;;24.41;94.25
20350;BME280;10332;50.208;18.988;2022-08-20T05:03:53;97604.69;;;24.50;94.01
20350;BME280;10332;50.208;18.988;2022-08-20T05:06:29;97606.34;;;24.45;93.50
20350;BME280;10332;50.208;18.988;2022-08-20T05:08:59;97606.97;;;24.53;93.02
20350;BME280;10332;50.208;18.988;2022-08-20T05:11:28;97604.28;;;24.60;93.01
20350;BME280;10332;50.208;18.988;2022-08-20T05:14:05;97590.72;;;24.68;92.70
20350;BME280;10332;50.208;18.988;2022-08-20T05:16:38;97583.75;;;24.80;92.55
20350;BME280;10332;50.208;18.988;2022-08-20T05:19:09;97580.00;;;25.01;91.92
20350;BME280;10332;50.208;18.988;2022-08-20T05:21:38;97583.09;;;25.18;91.48
20350;BME280;10332;50.208;18.988;2022-08-20T05:24:07;97590.66;;;25.34;90.59
20350;BME280;10332;50.208;18.988;2022-08-20T05:26:36;97589.31;;;25.57;89.66
20350;BME280;10332;50.208;18.988;2022-08-20T05:29:04;97590.50;;;25.67;89.28
20350;BME280;10332;50.208;18.988;2022-08-20T05:31:33;97596.03;;;25.79;88.75
20350;BME280;10332;50.208;18.988;2022-08-20T05:34:07;97602.13;;;25.93;88.32
20350;BME280;10332;50.208;18.988;2022-08-20T05:36:47;97603.97;;;25.99;87.70
20350;BME280;10332;50.208;18.988;2022-08-20T05:39:21;97596.91;;;26.04;86.85
20350;BME280;10332;50.208;18.988;2022-08-20T05:42:08;97608.03;;;26.08;86.64
20350;BME280;10332;50.208;18.988;2022-08-20T05:44:37;97606.72;;;26.17;86.71
20350;BME280;10332;50.208;18.988;2022-08-20T05:47:05;97600.50;;;26.23;86.53
20350;BME280;10332;50.208;18.988;2022-08-20T05:49:32;97597.56;;;26.31;86.00
20350;BME280;10332;50.208;18.988;2022-08-20T05:52:00;97593.84;;;26.32;85.78
20350;BME280;10332;50.208;18.988;2022-08-20T05:54:31;97604.13;;;26.36;85.70
20350;BME280;10332;50.208;18.988;2022-08-20T05:56:58;97597.31;;;26.40;85.54
20350;BME280;10332;50.208;18.988;2022-08-20T05:59:25;97610.94;;;26.31;83.84
20350;BME280;10332;50.208;18.988;2022-08-20T06:01:53;97608.03;;;26.40;83.53
20350;BME280;10332;50.208;18.988;2022-08-20T06:04:21;97598.47;;;26.50;83.26
20350;BME280;10332;50.208;18.988;2022-08-20T06:07:01;97603.28;;;26.67;82.56
20350;BME280;10332;50.208;18.988;2022-08-20T06:09:30;97611.59;;;26.83;82.15
20350;BME280;10332;50.208;18.988;2022-08-20T06:12:02;97611.31;;;26.92;82.07
20350;BME280;10332;50.208;18.988;2022-08-20T06:14:32;97625.09;;;26.95;81.93
20350;BME280;10332;50.208;18.988;2022-08-20T06:17:12;97618.59;;;26.84;79.77
20350;BME280;10332;50.208;18.988;2022-08-20T06:19:44;97619.41;;;26.85;80.43
20350;BME280;10332;50.208;18.988;2022-08-20T06:22:14;97617.69;;;26.72;80.25
20350;BME280;10332;50.208;18.988;2022-08-20T06:24:53;97616.03;;;26.71;80.57
20350;BME280;10332;50.208;18.988;2022-08-20T06:27:21;97600.56;;;26.73;80.88
20350;BME280;10332;50.208;18.988;2022-08-20T06:29:49;97602.16;;;26.81;80.62
20350;BME280;10332;50.208;18.988;2022-08-20T06:32:19;97600.78;;;26.97;80.17
20350;BME280;10332;50.208;18.988;2022-08-20T06:35:00;97604.91;;;27.18;79.72
20350;BME280;10332;50.208;18.988;2022-08-20T06:37:30;97597.47;;;27.38;78.92
20350;BME280;10332;50.208;18.988;2022-08-20T06:40:26;97595.59;;;27.75;77.79
20350;BME280;10332;50.208;18.988;2022-08-20T06:42:56;97605.66;;;28.10;76.63
20350;BME280;10332;50.208;18.988;2022-08-20T06:45:28;97619.22;;;28.15;76.08
20350;BME280;10332;50.208;18.988;2022-08-20T06:47:59;97617.91;;;28.36;75.19
20350;BME280;10332;50.208;18.988;2022-08-20T06:50:34;97623.00;;;28.25;75.53
20350;BME280;10332;50.208;18.988;2022-08-20T06:53:18;97635.72;;;29.65;71.37
20350;BME280;10332;50.208;18.988;2022-08-20T06:55:53;97632.66;;;29.74;70.95
20350;BME280;10332;50.208;18.988;2022-08-20T06:58:21;97637.75;;;31.06;67.00
20350;BME280;10332;50.208;18.988;2022-08-20T07:01:10;97636.63;;;30.68;68.66
20350;BME280;10332;50.208;18.988;2022-08-20T07:03:40;97632.16;;;30.62;68.46
20350;BME280;10332;50.208;18.988;2022-08-20T07:06:24;97630.47;;;30.90;67.29
20350;BME280;10332;50.208;18.988;2022-08-20T07:08:54;97630.63;;;31.17;65.35
20350;BME280;10332;50.208;18.988;2022-08-20T07:11:22;97634.78;;;31.41;63.58
20350;BME280;10332;50.208;18.988;2022-08-20T07:13:56;97634.44;;;31.76;62.07
20350;BME280;10332;50.208;18.988;2022-08-20T07:16:25;97632.41;;;31.88;61.80
20350;BME280;10332;50.208;18.988;2022-08-20T07:18:53;97643.03;;;31.73;62.25
20350;BME280;10332;50.208;18.988;2022-08-20T07:21:21;97643.25;;;31.50;60.95
20350;BME280;10332;50.208;18.988;2022-08-20T07:23:48;97641.50;;;31.60;60.26
20350;BME280;10332;50.208;18.988;2022-08-20T07:26:16;97637.25;;;31.64;60.87
20350;BME280;10332;50.208;18.988;2022-08-20T07:28:45;97644.28;;;31.66;59.72
20350;BME280;10332;50.208;18.988;2022-08-20T07:31:13;97656.03;;;31.76;59.81
20350;BME280;10332;50.208;18.988;2022-08-20T07:34:02;97657.06;;;31.92;59.18
20350;BME280;10332;50.208;18.988;2022-08-20T07:36:31;97652.84;;;32.01;59.48
20350;BME280;10332;50.208;18.988;2022-08-20T07:38:59;97655.81;;;32.27;57.20
20350;BME280;10332;50.208;18.988;2022-08-20T07:41:32;97656.69;;;32.32;56.60
20350;BME280;10332;50.208;18.988;2022-08-20T07:44:00;97658.41;;;32.43;56.71
20350;BME280;10332;50.208;18.988;2022-08-20T07:46:27;97656.50;;;32.17;55.91
20350;BME280;10332;50.208;18.988;2022-08-20T07:48:58;97659.16;;;32.12;55.62
20350;BME280;10332;50.208;18.988;2022-08-20T07:51:25;97647.38;;;32.23;54.92
20350;BME280;10332;50.208;18.988;2022-08-20T07:53:53;97648.84;;;32.58;55.14
20350;BME280;10332;50.208;18.988;2022-08-20T07:56:22;97650.22;;;32.92;54.18
20350;BME280;10332;50.208;18.988;2022-08-20T07:58:54;97650.69;;;33.21;54.09
20350;BME280;10332;50.208;18.988;2022-08-20T08:01:28;97652.13;;;33.34;52.65
20350;BME280;10332;50.208;18.988;2022-08-20T08:03:58;97659.59;;;33.54;52.72
20350;BME280;10332;50.208;18.988;2022-08-20T08:06:28;97659.94;;;33.78;52.29
20350;BME280;10332;50.208;18.988;2022-08-20T08:09:05;97659.44;;;33.81;51.29
20350;BME280;10332;50.208;18.988;2022-08-20T08:11:37;97656.84;;;33.44;51.63
20350;BME280;10332;50.208;18.988;2022-08-20T08:14:08;97642.13;;;32.92;53.07
20350;BME280;10332;50.208;18.988;2022-08-20T08:16:37;97648.19;;;32.45;53.80
20350;BME280;10332;50.208;18.988;2022-08-20T08:19:08;97642.69;;;32.13;54.90
20350;BME280;10332;50.208;18.988;2022-08-20T08:21:38;97635.44;;;31.92;55.49
20350;BME280;10332;50.208;18.988;2022-08-20T08:24:05;97635.47;;;31.97;55.65
20350;BME280;10332;50.208;18.988;2022-08-20T08:26:33;97634.66;;;32.18;55.64
20350;BME280;10332;50.208;18.988;2022-08-20T08:29:00;97634.84;;;32.66;55.00
20350;BME280;10332;50.208;18.988;2022-08-20T08:31:28;97638.59;;;32.92;54.59
20350;BME280;10332;50.208;18.988;2022-08-20T08:33:56;97642.03;;;33.62;53.09
20350;BME280;10332;50.208;18.988;2022-08-20T08:36:23;97652.00;;;34.24;51.93
20350;BME280;10332;50.208;18.988;2022-08-20T08:38:52;97652.91;;;34.45;51.15
20350;BME280;10332;50.208;18.988;2022-08-20T08:41:34;97670.25;;;34.49;50.78
20350;BME280;10332;50.208;18.988;2022-08-20T08:44:33;97670.19;;;33.23;53.00
20350;BME280;10332;50.208;18.988;2022-08-20T08:47:12;97670.75;;;32.61;54.84
20350;BME280;10332;50.208;18.988;2022-08-20T08:49:46;97672.22;;;32.20;55.74
20350;BME280;10332;50.208;18.988;2022-08-20T08:52:30;97676.16;;;31.69;56.76
20350;BME280;10332;50.208;18.988;2022-08-20T08:55:04;97679.28;;;31.39;57.87
20350;BME280;10332;50.208;18.988;2022-08-20T08:57:32;97664.19;;;31.21;58.91
20350;BME280;10332;50.208;18.988;2022-08-20T09:00:13;97668.72;;;31.20;58.75
20350;BME280;10332;50.208;18.988;2022-08-20T09:03:11;97667.28;;;31.29;58.94
20350;BME280;10332;50.208;18.988;2022-08-20T09:05:50;97673.06;;;31.38;59.20
20350;BME280;10332;50.208;18.988;2022-08-20T09:08:24;97661.94;;;31.73;58.05
20350;BME280;10332;50.208;18.988;2022-08-20T09:10:53;97655.81;;;32.81;56.05
20350;BME280;10332;50.208;18.988;2022-08-20T09:13:21;97669.97;;;37.34;45.91
20350;BME280;10332;50.208;18.988;2022-08-20T09:15:48;97681.28;;;42.19;37.37
20350;BME280;10332;50.208;18.988;2022-08-20T09:18:17;97680.84;;;46.45;30.99
20350;BME280;10332;50.208;18.988;2022-08-20T09:21:35;97684.06;;;45.37;29.34
20350;BME280;10332;50.208;18.988;2022-08-20T09:24:07;97669.31;;;40.82;34.88
20350;BME280;10332;50.208;18.988;2022-08-20T09:26:40;97664.34;;;38.78;38.52
20350;BME280;10332;50.208;18.988;2022-08-20T09:29:08;97658.69;;;37.17;41.19
20350;BME280;10332;50.208;18.988;2022-08-20T09:31:36;97660.53;;;36.09;43.49
20350;BME280;10332;50.208;18.988;2022-08-20T09:34:04;97650.16;;;35.51;44.88
20350;BME280;10332;50.208;18.988;2022-08-20T09:36:32;97656.44;;;34.86;46.10
20350;BME280;10332;50.208;18.988;2022-08-20T09:39:00;97655.97;;;33.91;48.51
20350;BME280;10332;50.208;18.988;2022-08-20T09:41:30;97658.97;;;33.42;50.04
20350;BME280;10332;50.208;18.988;2022-08-20T09:44:01;97644.69;;;33.56;50.21
20350;BME280;10332;50.208;18.988;2022-08-20T09:46:28;97644.25;;;33.32;51.10
20350;BME280;10332;50.208;18.988;2022-08-20T09:48:55;97637.72;;;32.86;52.53
20350;BME280;10332;50.208;18.988;2022-08-20T09:51:23;97648.56;;;32.59;53.28
20350;BME280;10332;50.208;18.988;2022-08-20T09:53:51;97648.59;;;32.32;54.41
20350;BME280;10332;50.208;18.988;2022-08-20T09:56:18;97660.59;;;31.98;55.06
20350;BME280;10332;50.208;18.988;2022-08-20T09:58:53;97668.38;;;31.72;55.68
20350;BME280;10332;50.208;18.988;2022-08-20T10:01:24;97659.81;;;31.37;55.97
20350;BME280;10332;50.208;18.988;2022-08-20T10:03:52;97654.34;;;31.15;56.75
20350;BME280;10332;50.208;18.988;2022-08-20T10:06:20;97650.25;;;31.12;57.14
20350;BME280;10332;50.208;18.988;2022-08-20T10:08:49;97643.84;;;31.18;57.32
20350;BME280;10332;50.208;18.988;2022-08-20T10:11:17;97634.50;;;31.21;57.26
20350;BME280;10332;50.208;18.988;2022-08-20T10:13:45;97634.56;;;31.26;56.63
20350;BME280;10332;50.208;18.988;2022-08-20T10:16:12;97633.31;;;31.33;56.83
20350;BME280;10332;50.208;18.988;2022-08-20T10:18:40;97629.13;;;31.43;57.12
20350;BME280;10332;50.208;18.988;2022-08-20T10:21:10;97626.75;;;31.68;56.09
20350;BME280;10332;50.208;18.988;2022-08-20T10:23:37;97620.88;;;32.20;55.75
20350;BME280;10332;50.208;18.988;2022-08-20T10:26:08;97629.06;;;32.84;54.14
20350;BME280;10332;50.208;18.988;2022-08-20T10:28:36;97627.59;;;33.51;52.21
20350;BME280;10332;50.208;18.988;2022-08-20T10:31:11;97631.19;;;33.67;51.44
20350;BME280;10332;50.208;18.988;2022-08-20T10:33:41;97630.66;;;33.70;51.02
20350;BME280;10332;50.208;18.988;2022-08-20T10:36:14;97637.16;;;33.69;50.90
20350;BME280;10332;50.208;18.988;2022-08-20T10:38:44;97637.13;;;33.53;50.88
20350;BME280;10332;50.208;18.988;2022-08-20T10:41:12;97631.06;;;33.36;51.24
20350;BME280;10332;50.208;18.988;2022-08-20T10:43:43;97631.47;;;33.18;51.13
20350;BME280;10332;50.208;18.988;2022-08-20T10:46:11;97634.53;;;32.89;50.98
20350;BME280;10332;50.208;18.988;2022-08-20T10:48:38;97635.25;;;32.53;51.59
20350;BME280;10332;50.208;18.988;2022-08-20T10:51:07;97645.75;;;32.22;52.59
20350;BME280;10332;50.208;18.988;2022-08-20T10:53:35;97650.94;;;32.02;53.28
20350;BME280;10332;50.208;18.988;2022-08-20T10:56:03;97656.88;;;31.60;54.37
20350;BME280;10332;50.208;18.988;2022-08-20T10:58:30;97654.66;;;31.35;55.60
20350;BME280;10332;50.208;18.988;2022-08-20T11:01:06;97663.19;;;31.10;56.55
20350;BME280;10332;50.208;18.988;2022-08-20T11:03:34;97650.38;;;30.84;57.50
20350;BME280;10332;50.208;18.988;2022-08-20T11:06:02;97643.53;;;30.47;59.18
20350;BME280;10332;50.208;18.988;2022-08-20T11:08:30;97643.53;;;30.19;59.21
20350;BME280;10332;50.208;18.988;2022-08-20T11:11:03;97646.19;;;30.02;60.18
20350;BME280;10332;50.208;18.988;2022-08-20T11:13:33;97654.75;;;29.87;60.38
20350;BME280;10332;50.208;18.988;2022-08-20T11:16:02;97655.00;;;29.74;60.59
20350;BME280;10332;50.208;18.988;2022-08-20T11:18:30;97655.16;;;29.56;61.13
20350;BME280;10332;50.208;18.988;2022-08-20T11:20:58;97661.84;;;29.42;61.05
20350;BME280;10332;50.208;18.988;2022-08-20T11:23:26;97646.41;;;29.25;61.17
20350;BME280;10332;50.208;18.988;2022-08-20T11:25:56;97642.47;;;29.04;62.98
20350;BME280;10332;50.208;18.988;2022-08-20T11:28:24;97639.94;;;28.79;64.46
20350;BME280;10332;50.208;18.988;2022-08-20T11:30:59;97651.13;;;28.65;65.28
20350;BME280;10332;50.208;18.988;2022-08-20T11:33:30;97632.78;;;28.50;66.16
20350;BME280;10332;50.208;18.988;2022-08-20T11:35:57;97644.09;;;28.40;66.69
20350;BME280;10332;50.208;18.988;2022-08-20T11:38:25;97637.22;;;28.26;67.98
20350;BME280;10332;50.208;18.988;2022-08-20T11:40:53;97633.91;;;28.12;68.90
20350;BME280;10332;50.208;18.988;2022-08-20T11:43:20;97627.22;;;28.03;69.59
20350;BME280;10332;50.208;18.988;2022-08-20T11:45:53;97627.06;;;27.86;70.62
20350;BME280;10332;50.208;18.988;2022-08-20T11:48:22;97626.16;;;27.74;71.25
20350;BME280;10332;50.208;18.988;2022-08-20T11:50:51;97631.81;;;27.66;71.96
20350;BME280;10332;50.208;18.988;2022-08-20T11:53:18;97618.78;;;27.51;72.85
20350;BME280;10332;50.208;18.988;2022-08-20T11:55:48;97610.56;;;27.46;73.11
20350;BME280;10332;50.208;18.988;2022-08-20T11:58:16;97605.56;;;27.50;72.64
20350;BME280;10332;50.208;18.988;2022-08-20T12:00:44;97604.69;;;27.56;72.90
20350;BME280;10332;50.208;18.988;2022-08-20T12:03:11;97597.56;;;27.68;72.13
20350;BME280;10332;50.208;18.988;2022-08-20T12:05:42;97599.47;;;27.79;71.25
20350;BME280;10332;50.208;18.988;2022-08-20T12:08:13;97601.41;;;27.72;71.04
20350;BME280;10332;50.208;18.988;2022-08-20T12:10:57;97607.06;;;27.64;71.12
20350;BME280;10332;50.208;18.988;2022-08-20T12:13:28;97606.09;;;27.58;71.62
20350;BME280;10332;50.208;18.988;2022-08-20T12:16:17;97607.22;;;27.51;71.93
20350;BME280;10332;50.208;18.988;2022-08-20T12:18:46;97607.75;;;27.41;72.60
20350;BME280;10332;50.208;18.988;2022-08-20T12:21:14;97602.47;;;27.34;73.22
20350;BME280;10332;50.208;18.988;2022-08-20T12:23:42;97594.72;;;27.26;74.44
20350;BME280;10332;50.208;18.988;2022-08-20T12:26:10;97584.88;;;27.20;74.57
20350;BME280;10332;50.208;18.988;2022-08-20T12:28:37;97591.28;;;27.19;74.51
20350;BME280;10332;50.208;18.988;2022-08-20T12:31:05;97581.59;;;27.18;75.01
20350;BME280;10332;50.208;18.988;2022-08-20T12:33:33;97588.06;;;27.10;75.48
20350;BME280;10332;50.208;18.988;2022-08-20T12:36:00;97593.31;;;26.99;75.93
20350;BME280;10332;50.208;18.988;2022-08-20T12:38:28;97598.91;;;26.97;75.84
20350;BME280;10332;50.208;18.988;2022-08-20T12:40:55;97600.06;;;26.83;76.91
20350;BME280;10332;50.208;18.988;2022-08-20T12:43:22;97602.25;;;26.68;77.67
20350;BME280;10332;50.208;18.988;2022-08-20T12:45:52;97612.63;;;26.57;78.06
20350;BME280;10332;50.208;18.988;2022-08-20T12:48:19;97625.06;;;26.52;78.64
20350;BME280;10332;50.208;18.988;2022-08-20T12:50:47;97625.31;;;26.44;78.86
20350;BME280;10332;50.208;18.988;2022-08-20T12:53:17;97619.34;;;26.42;78.99
20350;BME280;10332;50.208;18.988;2022-08-20T12:55:45;97615.66;;;26.36;79.80
20350;BME280;10332;50.208;18.988;2022-08-20T12:58:13;97607.06;;;26.27;80.62
20350;BME280;10332;50.208;18.988;2022-08-20T13:00:43;97613.28;;;26.21;80.76
20350;BME280;10332;50.208;18.988;2022-08-20T13:03:17;97613.72;;;26.18;81.02
20350;BME280;10332;50.208;18.988;2022-08-20T13:05:47;97619.94;;;26.12;80.80
20350;BME280;10332;50.208;18.988;2022-08-20T13:08:15;97641.38;;;26.06;80.83
20350;BME280;10332;50.208;18.988;2022-08-20T13:10:45;97662.03;;;25.92;81.91
20350;BME280;10332;50.208;18.988;2022-08-20T13:13:16;97687.19;;;25.78;82.96
20350;BME280;10332;50.208;18.988;2022-08-20T13:15:48;97710.25;;;25.65;84.72